Time;durP1;ratioP1;P1;durP2;ratioP2;P2;SDS_P1;SDS_P2;PMS_P1;PMS_P2;Temp;Humidity;BMP_temperature;BMP_pressure;BME280_temperature;BME280_humidity;BME280_pressure;Samples;Min_cycle;Max_cycle;Signal;HPM_P1;HPM_P2
2022/07/01 00:01:31;;;;;;;;;;;27.10;42.90;;;;;;5061265;28;982;-36
2022/07/01 00:03:58;;;;;;;;;;;27.20;42.90;;;;;;5060087;28;1029;-36
2022/07/01 00:06:25;;;;;;;;;;;27.20;42.80;;;;;;5060300;28;1223;-36
2022/07/01 00:08:52;;;;;;;;;;;27.20;42.80;;;;;;5060398;28;1788;-37
2022/07/01 00:11:19;;;;;;;;;;;27.30;42.70;;;;;;5060673;28;992;-36
2022/07/01 00:13:45;;;;;;;;;;;27.30;42.50;;;;;;5058954;28;1013;-36
2022/07/01 00:16:12;;;;;;;;;;;27.40;42.50;;;;;;5056731;28;1017;-38
2022/07/01 00:18:40;;;;;;;;;;;27.40;42.60;;;;;;5060119;28;1037;-37
2022/07/01 00:21:07;;;;;;;;;;;27.30;42.40;;;;;;5060354;28;1910;-36
2022/07/01 00:23:34;;;;;;;;;;;27.30;42.50;;;;;;5060663;28;926;-36
2022/07/01 00:26:00;;;;;;;;;;;27.40;42.50;;;;;;5060387;28;960;-38
2022/07/01 00:28:27;;;;;;;;;;;27.40;42.30;;;;;;5060451;28;1013;-37
2022/07/01 00:30:54;;;;;;;;;;;27.40;42.30;;;;;;5060201;28;1275;-36
2022/07/01 00:33:20;;;;;;;;;;;27.40;42.30;;;;;;5060102;28;931;-36
2022/07/01 00:35:49;;;;;;;;;;;27.40;42.30;;;;;;5060153;28;969;-37
2022/07/01 00:38:15;;;;;;;;;;;27.40;42.30;;;;;;5060570;28;934;-37
2022/07/01 00:40:42;;;;;;;;;;;27.40;42.40;;;;;;5059963;28;1898;-37
2022/07/01 00:43:09;;;;;;;;;;;27.40;42.30;;;;;;5060574;28;977;-36
2022/07/01 00:45:35;;;;;;;;;;;27.50;42.30;;;;;;5059898;28;981;-36
2022/07/01 00:48:02;;;;;;;;;;;27.50;42.40;;;;;;5059938;28;976;-36
2022/07/01 00:50:29;;;;;;;;;;;27.50;42.40;;;;;;5060184;28;938;-36
2022/07/01 00:52:57;;;;;;;;;;;27.50;42.30;;;;;;5060025;28;922;-37
2022/07/01 00:55:24;;;;;;;;;;;27.50;42.30;;;;;;5060317;28;922;-36
2022/07/01 00:57:51;;;;;;;;;;;27.50;42.30;;;;;;5059721;28;980;-36
2022/07/01 01:00:20;;;;;;;;;;;27.50;43.40;;;;;;5059690;28;1979;-37
2022/07/01 01:02:47;;;;;;;;;;;27.50;42.20;;;;;;5060351;28;1042;-37
2022/07/01 01:05:14;;;;;;;;;;;27.50;42.30;;;;;;5059575;28;1001;-37
2022/07/01 01:07:41;;;;;;;;;;;27.50;42.30;;;;;;5059717;28;933;-37
2022/07/01 01:10:10;;;;;;;;;;;27.50;42.20;;;;;;5059486;28;950;-37
2022/07/01 01:12:37;;;;;;;;;;;27.50;42.20;;;;;;5059829;28;1113;-37
2022/07/01 01:15:04;;;;;;;;;;;27.50;42.20;;;;;;5059909;28;987;-38
2022/07/01 01:17:31;;;;;;;;;;;27.50;42.20;;;;;;5059485;28;977;-37
2022/07/01 01:19:58;;;;;;;;;;;27.60;42.20;;;;;;5059608;28;1977;-36
2022/07/01 01:22:26;;;;;;;;;;;27.50;42.20;;;;;;5055365;28;1021;-37
2022/07/01 01:24:53;;;;;;;;;;;27.60;42.20;;;;;;5059266;28;989;-36
2022/07/01 01:27:19;;;;;;;;;;;27.60;42.30;;;;;;5059757;28;1010;-36
2022/07/01 01:29:46;;;;;;;;;;;27.50;42.20;;;;;;5059021;28;1218;-37
2022/07/01 01:32:13;;;;;;;;;;;27.50;42.30;;;;;;5059172;28;991;-37
2022/07/01 01:34:40;;;;;;;;;;;27.50;42.20;;;;;;5058832;28;909;-36
2022/07/01 01:37:07;;;;;;;;;;;27.40;42.20;;;;;;5059017;28;1040;-36
2022/07/01 01:39:37;;;;;;;;;;;27.30;42.20;;;;;;5059132;28;1967;-36
2022/07/01 01:42:04;;;;;;;;;;;27.40;42.30;;;;;;5059478;28;1025;-36
2022/07/01 01:44:31;;;;;;;;;;;27.50;42.20;;;;;;5058676;28;877;-36
2022/07/01 01:46:58;;;;;;;;;;;27.50;42.20;;;;;;5058877;28;1013;-37
2022/07/01 01:49:24;;;;;;;;;;;27.50;42.10;;;;;;5058814;28;981;-36
2022/07/01 01:51:51;;;;;;;;;;;27.50;42.10;;;;;;5058712;28;946;-36
2022/07/01 01:54:18;;;;;;;;;;;27.50;42.10;;;;;;5058500;28;941;-36
2022/07/01 01:56:46;;;;;;;;;;;27.50;42.10;;;;;;5058372;28;946;-36
2022/07/01 01:59:13;;;;;;;;;;;27.50;42.10;;;;;;5058567;28;953;-36
2022/07/01 02:01:40;;;;;;;;;;;27.50;42.10;;;;;;5058394;28;1950;-36
2022/07/01 02:04:06;;;;;;;;;;;27.60;42.10;;;;;;5058485;28;954;-36
2022/07/01 02:06:33;;;;;;;;;;;27.50;42.00;;;;;;5058370;28;988;-37
2022/07/01 02:09:00;;;;;;;;;;;27.60;42.10;;;;;;5058497;28;951;-36
2022/07/01 02:11:27;;;;;;;;;;;27.60;42.10;;;;;;5058556;28;1041;-37
2022/07/01 02:13:55;;;;;;;;;;;27.60;42.20;;;;;;5058572;28;965;-36
2022/07/01 02:16:21;;;;;;;;;;;27.60;42.20;;;;;;5057970;28;1020;-36
2022/07/01 02:18:48;;;;;;;;;;;27.60;42.20;;;;;;5058472;28;950;-36
2022/07/01 02:21:15;;;;;;;;;;;27.60;42.10;;;;;;5058070;28;1905;-36
2022/07/01 02:23:42;;;;;;;;;;;27.60;42.00;;;;;;5058147;28;1013;-36
2022/07/01 02:26:09;;;;;;;;;;;27.60;42.00;;;;;;5058425;28;972;-36
2022/07/01 02:28:35;;;;;;;;;;;27.60;42.00;;;;;;5058290;28;985;-36
2022/07/01 02:31:03;;;;;;;;;;;27.60;42.00;;;;;;5058300;28;1069;-36
2022/07/01 02:33:30;;;;;;;;;;;27.60;42.00;;;;;;5058303;28;961;-37
2022/07/01 02:35:58;;;;;;;;;;;27.60;41.90;;;;;;5058101;28;985;-37
2022/07/01 02:38:24;;;;;;;;;;;27.60;41.90;;;;;;5058351;28;970;-36
2022/07/01 02:40:51;;;;;;;;;;;27.50;42.00;;;;;;5058286;28;1906;-36
2022/07/01 02:43:18;;;;;;;;;;;27.50;41.90;;;;;;5058119;28;1784;-36
2022/07/01 02:45:44;;;;;;;;;;;27.60;41.90;;;;;;5058036;28;942;-36
2022/07/01 02:51:15;;;;;;;;;;;27.60;41.90;;;;;;5057509;28;838;-37
2022/07/01 02:53:42;;;;;;;;;;;27.50;42.10;;;;;;5057824;28;1042;-36
2022/07/01 02:56:09;;;;;;;;;;;27.50;42.00;;;;;;5058290;28;995;-36
2022/07/01 02:58:35;;;;;;;;;;;27.40;42.20;;;;;;5057729;28;969;-36
2022/07/01 03:01:02;;;;;;;;;;;27.40;42.10;;;;;;5057982;28;1898;-36
2022/07/01 03:03:29;;;;;;;;;;;27.40;42.20;;;;;;5058227;28;922;-36
2022/07/01 03:05:56;;;;;;;;;;;27.40;42.10;;;;;;5058124;28;1027;-36
2022/07/01 03:08:24;;;;;;;;;;;27.30;42.10;;;;;;5057689;28;1017;-37
2022/07/01 03:10:50;;;;;;;;;;;27.40;42.10;;;;;;5057691;28;1017;-36
2022/07/01 03:13:19;;;;;;;;;;;27.40;42.00;;;;;;5058284;28;977;-37
2022/07/01 03:15:46;;;;;;;;;;;27.40;42.10;;;;;;5058252;28;966;-36
2022/07/01 03:18:13;;;;;;;;;;;27.40;42.10;;;;;;5058465;28;1025;-37
2022/07/01 03:20:39;;;;;;;;;;;27.30;42.20;;;;;;5057616;28;1967;-36
2022/07/01 03:23:06;;;;;;;;;;;27.50;41.90;;;;;;5057790;28;946;-36
2022/07/01 03:25:35;;;;;;;;;;;27.40;42.00;;;;;;5057318;28;1025;-36
2022/07/01 03:28:03;;;;;;;;;;;27.50;41.80;;;;;;5057632;28;1017;-36
2022/07/01 03:30:30;;;;;;;;;;;27.60;41.80;;;;;;5060890;28;1226;-36
2022/07/01 03:32:57;;;;;;;;;;;27.60;41.70;;;;;;5061223;28;944;-37
2022/07/01 03:35:36;;;;;;;;;;;27.60;41.70;;;;;;5061522;28;934;-36
2022/07/01 03:38:04;;;;;;;;;;;27.60;41.70;;;;;;5061305;28;954;-37
2022/07/01 03:40:30;;;;;;;;;;;27.60;41.70;;;;;;5061089;28;1906;-37
2022/07/01 03:42:59;;;;;;;;;;;27.40;41.80;;;;;;5061364;28;938;-36
2022/07/01 03:45:25;;;;;;;;;;;27.40;41.90;;;;;;5061116;28;946;-37
2022/07/01 03:47:52;;;;;;;;;;;27.40;41.80;;;;;;5061312;28;994;-36
2022/07/01 03:50:21;;;;;;;;;;;27.40;42.00;;;;;;5060911;28;926;-36
2022/07/01 03:52:48;;;;;;;;;;;27.40;42.00;;;;;;5060551;28;1096;-36
2022/07/01 03:55:14;;;;;;;;;;;27.40;43.00;;;;;;5060814;28;922;-36
2022/07/01 03:57:41;;;;;;;;;;;27.40;41.90;;;;;;5061226;28;1029;-36
2022/07/01 04:00:10;;;;;;;;;;;27.40;41.70;;;;;;5060945;28;980;-37
2022/07/01 04:02:36;;;;;;;;;;;27.50;41.70;;;;;;5060376;28;976;-40
2022/07/01 04:05:03;;;;;;;;;;;27.50;41.60;;;;;;5060751;28;937;-36
2022/07/01 04:07:30;;;;;;;;;;;27.40;41.50;;;;;;5060415;28;890;-36
2022/07/01 04:09:57;;;;;;;;;;;27.40;41.70;;;;;;5060225;28;938;-37
2022/07/01 04:12:24;;;;;;;;;;;27.40;41.80;;;;;;5060185;28;1071;-37
2022/07/01 04:14:50;;;;;;;;;;;27.30;41.70;;;;;;5060237;28;1009;-36
2022/07/01 04:17:18;;;;;;;;;;;27.30;41.80;;;;;;5060619;28;917;-36
2022/07/01 04:19:45;;;;;;;;;;;27.30;41.60;;;;;;5060487;28;969;-36
2022/07/01 04:24:56;;;;;;;;;;;27.30;41.80;;;;;;5059891;28;613;-36
2022/07/01 04:27:23;;;;;;;;;;;27.30;41.70;;;;;;5060108;28;950;-37
2022/07/01 04:29:49;;;;;;;;;;;27.30;41.60;;;;;;5059741;28;1049;-36
2022/07/01 04:32:16;;;;;;;;;;;27.30;41.80;;;;;;5059906;28;1088;-36
2022/07/01 04:34:44;;;;;;;;;;;27.20;41.80;;;;;;5060217;28;962;-36
2022/07/01 04:37:11;;;;;;;;;;;27.20;41.70;;;;;;5060709;28;1005;-37
2022/07/01 04:39:38;;;;;;;;;;;27.20;41.70;;;;;;5059447;28;980;-37
2022/07/01 04:42:05;;;;;;;;;;;27.20;41.60;;;;;;5059305;28;1907;-36
2022/07/01 04:44:33;;;;;;;;;;;27.10;41.70;;;;;;5059778;28;1060;-38
2022/07/01 04:47:00;;;;;;;;;;;27.10;41.70;;;;;;5059172;28;969;-37
2022/07/01 04:49:27;;;;;;;;;;;27.10;41.60;;;;;;5059560;28;942;-37
2022/07/01 04:51:55;;;;;;;;;;;27.20;41.60;;;;;;5059755;28;1005;-36
2022/07/01 04:54:22;;;;;;;;;;;27.10;41.40;;;;;;5059095;28;978;-36
2022/07/01 04:56:48;;;;;;;;;;;27.00;41.50;;;;;;5059987;28;924;-36
2022/07/01 04:59:15;;;;;;;;;;;27.10;41.50;;;;;;5059195;28;950;-36
2022/07/01 05:01:43;;;;;;;;;;;27.20;41.50;;;;;;5059328;28;1918;-36
2022/07/01 05:04:10;;;;;;;;;;;27.20;41.40;;;;;;5058998;28;1017;-36
2022/07/01 05:06:37;;;;;;;;;;;27.20;41.40;;;;;;5058752;28;1021;-36
2022/07/01 05:09:05;;;;;;;;;;;27.20;41.30;;;;;;5058681;28;977;-37
2022/07/01 05:11:32;;;;;;;;;;;27.20;41.30;;;;;;5058578;28;978;-38
2022/07/01 05:13:59;;;;;;;;;;;27.20;41.40;;;;;;5058230;28;1020;-36
2022/07/01 05:16:25;;;;;;;;;;;27.30;41.30;;;;;;5058694;28;1036;-36
2022/07/01 05:24:22;;;;;;;;;;;27.30;41.00;;;;;;5058125;28;701;-37
2022/07/01 05:26:49;;;;;;;;;;;27.20;41.00;;;;;;5058358;28;984;-37
2022/07/01 05:29:16;;;;;;;;;;;27.30;41.10;;;;;;5057169;28;1109;-36
2022/07/01 05:31:43;;;;;;;;;;;27.20;41.20;;;;;;5058134;28;961;-37
2022/07/01 05:34:10;;;;;;;;;;;27.20;41.20;;;;;;5058498;28;1003;-37
2022/07/01 05:36:37;;;;;;;;;;;27.10;41.20;;;;;;5057944;28;1033;-36
2022/07/01 05:39:04;;;;;;;;;;;27.20;41.30;;;;;;5057381;28;973;-36
2022/07/01 05:41:34;;;;;;;;;;;27.20;42.50;;;;;;5058150;28;1905;-37
2022/07/01 05:44:01;;;;;;;;;;;27.20;41.30;;;;;;5057286;28;984;-36
2022/07/01 05:46:27;;;;;;;;;;;27.20;41.30;;;;;;5057635;28;988;-37
2022/07/01 05:48:54;;;;;;;;;;;27.20;41.40;;;;;;5057279;28;945;-36
2022/07/01 05:51:21;;;;;;;;;;;27.20;41.40;;;;;;5056598;28;1045;-36
2022/07/01 05:53:48;;;;;;;;;;;27.10;41.70;;;;;;5057372;28;950;-37
2022/07/01 05:56:15;;;;;;;;;;;27.10;41.60;;;;;;5057861;28;962;-36
2022/07/01 05:58:43;;;;;;;;;;;27.10;41.70;;;;;;5057082;28;1027;-37
2022/07/01 06:01:10;;;;;;;;;;;27.00;41.70;;;;;;5056376;28;1971;-38
2022/07/01 06:03:37;;;;;;;;;;;27.00;41.80;;;;;;5056886;28;1188;-36
2022/07/01 06:06:04;;;;;;;;;;;27.00;41.70;;;;;;5056525;28;1001;-36
2022/07/01 06:08:30;;;;;;;;;;;27.00;41.70;;;;;;5056376;28;958;-36
2022/07/01 06:10:57;;;;;;;;;;;27.00;41.80;;;;;;5056467;28;1210;-36
2022/07/01 06:13:24;;;;;;;;;;;27.00;41.80;;;;;;5056703;28;1232;-36
2022/07/01 06:15:52;;;;;;;;;;;27.00;41.90;;;;;;5056811;28;1005;-36
2022/07/01 06:18:19;;;;;;;;;;;27.00;42.00;;;;;;5057038;28;921;-36
2022/07/01 06:20:46;;;;;;;;;;;27.00;42.00;;;;;;5055322;28;949;-36
2022/07/01 06:23:13;;;;;;;;;;;27.00;41.80;;;;;;5055817;28;1977;-37
2022/07/01 06:25:39;;;;;;;;;;;27.00;41.90;;;;;;5055532;28;985;-36
2022/07/01 06:28:06;;;;;;;;;;;27.00;42.00;;;;;;5055909;28;927;-36
2022/07/01 06:30:33;;;;;;;;;;;27.00;41.70;;;;;;5055665;28;1247;-36
2022/07/01 06:33:01;;;;;;;;;;;26.90;41.80;;;;;;5056385;28;933;-36
2022/07/01 06:35:28;;;;;;;;;;;26.90;41.60;;;;;;5056301;28;1057;-36
2022/07/01 06:37:54;;;;;;;;;;;26.90;41.80;;;;;;5056229;28;1045;-39
2022/07/01 06:40:21;;;;;;;;;;;26.90;41.90;;;;;;5057126;28;1942;-38
2022/07/01 06:42:49;;;;;;;;;;;26.80;41.90;;;;;;5057087;28;1901;-38
2022/07/01 06:45:16;;;;;;;;;;;26.80;42.00;;;;;;5056576;28;1025;-39
2022/07/01 06:47:43;;;;;;;;;;;26.80;42.00;;;;;;5056520;28;992;-39
2022/07/01 06:50:11;;;;;;;;;;;26.80;41.90;;;;;;5056835;28;1086;-42
2022/07/01 06:52:38;;;;;;;;;;;26.80;42.00;;;;;;5055686;28;1538;-41
2022/07/01 06:55:05;;;;;;;;;;;26.70;42.00;;;;;;5055187;28;1008;-38
2022/07/01 06:57:33;;;;;;;;;;;26.70;42.00;;;;;;5056952;28;1014;-43
2022/07/01 06:59:59;;;;;;;;;;;26.80;41.80;;;;;;5054641;28;926;-43
2022/07/01 07:02:26;;;;;;;;;;;26.80;42.00;;;;;;5055462;28;1977;-43
2022/07/01 07:04:57;;;;;;;;;;;26.80;41.90;;;;;;5059077;28;989;-43
2022/07/01 07:07:25;;;;;;;;;;;26.70;41.80;;;;;;5060740;28;973;-40
2022/07/01 07:09:52;;;;;;;;;;;26.70;42.00;;;;;;5059032;28;1013;-37
2022/07/01 07:12:19;;;;;;;;;;;26.70;42.10;;;;;;5060233;28;1077;-38
2022/07/01 07:14:46;;;;;;;;;;;26.70;42.10;;;;;;5059960;28;946;-38
2022/07/01 07:17:13;;;;;;;;;;;26.70;42.20;;;;;;5060064;28;934;-40
2022/07/01 07:19:39;;;;;;;;;;;26.70;42.10;;;;;;5059267;28;1056;-38
2022/07/01 07:22:06;;;;;;;;;;;26.70;42.30;;;;;;5059982;28;1975;-38
2022/07/01 07:24:34;;;;;;;;;;;26.60;42.40;;;;;;5058723;28;1022;-38
2022/07/01 07:27:00;;;;;;;;;;;26.70;42.30;;;;;;5057998;28;997;-38
2022/07/01 07:29:27;;;;;;;;;;;26.60;42.20;;;;;;5059451;28;1093;-42
2022/07/01 07:31:54;;;;;;;;;;;26.70;42.30;;;;;;5059033;28;983;-37
2022/07/01 07:34:21;;;;;;;;;;;26.60;42.30;;;;;;5059424;28;1017;-39
2022/07/01 07:36:47;;;;;;;;;;;26.60;42.30;;;;;;5059851;28;946;-38
2022/07/01 07:39:14;;;;;;;;;;;26.70;42.30;;;;;;5059601;28;1017;-38
2022/07/01 07:41:42;;;;;;;;;;;26.70;42.40;;;;;;5060045;28;1898;-37
2022/07/01 07:44:09;;;;;;;;;;;26.70;42.60;;;;;;5059419;28;1037;-39
2022/07/01 07:46:36;;;;;;;;;;;26.70;42.80;;;;;;5060380;28;1011;-39
2022/07/01 07:49:03;;;;;;;;;;;26.70;42.70;;;;;;5059703;28;1040;-37
2022/07/01 07:51:29;;;;;;;;;;;26.70;42.90;;;;;;5058700;28;991;-40
2022/07/01 07:53:56;;;;;;;;;;;26.60;42.70;;;;;;5058581;28;1013;-38
2022/07/01 07:56:23;;;;;;;;;;;26.60;42.60;;;;;;5058690;28;985;-38
2022/07/01 07:58:51;;;;;;;;;;;26.70;42.50;;;;;;5058436;28;1227;-41
2022/07/01 08:01:18;;;;;;;;;;;26.70;42.40;;;;;;5058067;28;965;-39
2022/07/01 08:03:45;;;;;;;;;;;26.70;42.40;;;;;;5058518;28;1909;-39
2022/07/01 08:06:12;;;;;;;;;;;26.70;42.40;;;;;;5058375;28;957;-38
2022/07/01 08:08:38;;;;;;;;;;;26.70;42.40;;;;;;5059059;28;1044;-38
2022/07/01 08:11:05;;;;;;;;;;;26.80;42.40;;;;;;5058548;28;1046;-38
2022/07/01 08:13:32;;;;;;;;;;;26.70;42.40;;;;;;5057809;28;1007;-39
2022/07/01 08:16:00;;;;;;;;;;;26.70;42.40;;;;;;5057404;28;989;-39
2022/07/01 08:18:27;;;;;;;;;;;26.70;42.50;;;;;;5058074;28;950;-38
2022/07/01 08:20:54;;;;;;;;;;;26.70;42.40;;;;;;5059164;28;1021;-40
2022/07/01 08:23:21;;;;;;;;;;;26.70;42.40;;;;;;5057988;28;1906;-38
2022/07/01 08:25:47;;;;;;;;;;;26.70;42.20;;;;;;5058447;28;3399;-36
2022/07/01 08:28:14;;;;;;;;;;;26.60;42.30;;;;;;5058171;28;942;-37
2022/07/01 08:30:41;;;;;;;;;;;26.60;42.20;;;;;;5058037;28;1226;-44
2022/07/01 08:33:09;;;;;;;;;;;26.70;42.50;;;;;;5057262;28;997;-44
2022/07/01 08:35:36;;;;;;;;;;;26.80;42.20;;;;;;5057115;28;1060;-44
2022/07/01 08:38:03;;;;;;;;;;;26.80;42.00;;;;;;5057144;28;1005;-44
2022/07/01 08:40:31;;;;;;;;;;;26.90;41.90;;;;;;5057621;28;993;-45
2022/07/01 08:42:58;;;;;;;;;;;27.00;41.90;;;;;;5058005;28;1983;-44
2022/07/01 08:45:27;;;;;;;;;;;27.00;41.90;;;;;;5057472;28;931;-44
2022/07/01 08:47:57;;;;;;;;;;;27.00;42.20;;;;;;5057477;28;971;-38
2022/07/01 08:50:26;;;;;;;;;;;27.00;42.20;;;;;;5057230;28;993;-41
2022/07/01 08:52:53;;;;;;;;;;;27.10;42.10;;;;;;5057469;28;1150;-37
2022/07/01 08:55:20;;;;;;;;;;;27.20;42.00;;;;;;5057783;28;923;-38
2022/07/01 08:57:46;;;;;;;;;;;27.10;42.10;;;;;;5057110;28;942;-38
2022/07/01 09:00:14;;;;;;;;;;;27.10;42.10;;;;;;5057063;28;1016;-38
2022/07/01 09:02:51;;;;;;;;;;;27.20;42.10;;;;;;5057186;28;1906;-37
2022/07/01 09:05:18;;;;;;;;;;;27.20;42.10;;;;;;5052865;28;959;-38
2022/07/01 09:07:47;;;;;;;;;;;27.20;41.40;;;;;;5057614;28;2060;-38
2022/07/01 09:10:14;;;;;;;;;;;27.10;40.90;;;;;;5056862;28;922;-36
2022/07/01 09:12:41;;;;;;;;;;;27.10;40.70;;;;;;5057611;28;1080;-35
2022/07/01 09:15:25;;;;;;;;;;;27.00;40.10;;;;;;5056638;28;942;-35
2022/07/01 09:17:53;;;;;;;;;;;27.00;39.80;;;;;;5057294;28;980;-35
2022/07/01 09:20:30;;;;;;;;;;;27.00;39.40;;;;;;5057367;28;981;-35
2022/07/01 09:23:02;;;;;;;;;;;26.90;39.60;;;;;;5057080;28;1984;-34
2022/07/01 09:25:29;;;;;;;;;;;26.90;39.70;;;;;;5056801;28;1012;-34
2022/07/01 09:28:06;;;;;;;;;;;26.90;39.70;;;;;;5057077;28;857;-34
2022/07/01 09:30:33;;;;;;;;;;;26.80;39.70;;;;;;5056298;28;1216;-34
2022/07/01 09:33:14;;;;;;;;;;;26.70;39.90;;;;;;5056750;28;1004;-34
2022/07/01 09:35:40;;;;;;;;;;;26.70;40.10;;;;;;5056603;28;1010;-34
2022/07/01 09:38:11;;;;;;;;;;;26.70;39.80;;;;;;5055738;28;938;-33
2022/07/01 09:40:51;;;;;;;;;;;26.70;39.80;;;;;;5056429;28;934;-34
2022/07/01 09:43:18;;;;;;;;;;;26.70;40.30;;;;;;5057164;28;1982;-35
2022/07/01 09:45:53;;;;;;;;;;;26.60;40.50;;;;;;5056667;28;948;-34
2022/07/01 09:48:20;;;;;;;;;;;26.70;40.30;;;;;;5056492;28;865;-35
2022/07/01 09:50:47;;;;;;;;;;;26.80;40.40;;;;;;5056404;28;950;-34
2022/07/01 09:53:15;;;;;;;;;;;26.80;40.40;;;;;;5055718;28;926;-38
2022/07/01 09:55:42;;;;;;;;;;;26.90;40.60;;;;;;5056330;28;889;-39
2022/07/01 09:58:09;;;;;;;;;;;26.90;40.60;;;;;;5056392;28;989;-39
2022/07/01 10:00:36;;;;;;;;;;;26.90;41.10;;;;;;5055053;28;1009;-39
2022/07/01 10:03:03;;;;;;;;;;;27.00;41.30;;;;;;5055996;28;1914;-38
2022/07/01 10:05:31;;;;;;;;;;;26.90;40.90;;;;;;5055061;28;1021;-38
2022/07/01 10:08:02;;;;;;;;;;;27.00;40.70;;;;;;5055198;28;938;-39
2022/07/01 10:10:37;;;;;;;;;;;27.00;41.50;;;;;;5055282;28;1830;-38
2022/07/01 10:13:06;;;;;;;;;;;27.10;40.90;;;;;;5054438;28;950;-39
2022/07/01 10:15:33;;;;;;;;;;;27.20;41.30;;;;;;5055703;28;1016;-40
2022/07/01 10:18:00;;;;;;;;;;;27.20;41.60;;;;;;5056080;28;938;-36
2022/07/01 10:20:27;;;;;;;;;;;27.20;41.90;;;;;;5055990;28;977;-36
2022/07/01 10:23:01;;;;;;;;;;;27.10;41.70;;;;;;5056890;28;1902;-35
2022/07/01 10:25:39;;;;;;;;;;;27.10;42.30;;;;;;5055790;28;965;-35
2022/07/01 10:28:12;;;;;;;;;;;27.10;42.10;;;;;;5054742;28;1026;-36
2022/07/01 10:30:49;;;;;;;;;;;27.10;41.60;;;;;;5055331;28;1182;-35
2022/07/01 10:33:27;;;;;;;;;;;27.20;42.10;;;;;;5054831;28;1001;-35
2022/07/01 10:35:54;;;;;;;;;;;27.20;41.80;;;;;;5055990;28;1067;-35
2022/07/01 10:38:20;;;;;;;;;;;27.20;41.70;;;;;;5054239;28;885;-36
2022/07/01 10:40:49;;;;;;;;;;;27.20;41.60;;;;;;5054925;28;975;-35
2022/07/01 10:43:16;;;;;;;;;;;27.30;42.00;;;;;;5054132;28;1906;-35
2022/07/01 10:45:43;;;;;;;;;;;27.30;41.60;;;;;;5054764;28;922;-35
2022/07/01 10:48:20;;;;;;;;;;;27.20;41.70;;;;;;5055254;28;981;-35
2022/07/01 10:50:47;;;;;;;;;;;27.30;41.80;;;;;;5054473;28;927;-36
2022/07/01 10:53:15;;;;;;;;;;;27.30;41.60;;;;;;5055548;28;1149;-36
2022/07/01 10:55:45;;;;;;;;;;;27.30;41.80;;;;;;5055095;28;1036;-36
2022/07/01 10:58:13;;;;;;;;;;;27.30;42.00;;;;;;5055088;28;926;-36
2022/07/01 11:00:41;;;;;;;;;;;27.30;42.10;;;;;;5054812;28;977;-35
2022/07/01 11:03:10;;;;;;;;;;;27.30;41.90;;;;;;5054722;28;1910;-35
2022/07/01 11:05:37;;;;;;;;;;;27.40;41.80;;;;;;5055510;28;977;-35
2022/07/01 11:08:05;;;;;;;;;;;27.50;41.80;;;;;;5055636;28;930;-35
2022/07/01 11:10:32;;;;;;;;;;;27.40;41.60;;;;;;5055731;28;1443;-35
2022/07/01 11:13:00;;;;;;;;;;;27.50;41.50;;;;;;5055087;28;1055;-35
2022/07/01 11:15:29;;;;;;;;;;;27.60;41.50;;;;;;5054260;28;976;-35
2022/07/01 11:17:56;;;;;;;;;;;27.70;41.30;;;;;;5054147;28;930;-35
2022/07/01 11:20:24;;;;;;;;;;;27.70;41.10;;;;;;5053764;28;1004;-36
2022/07/01 11:22:51;;;;;;;;;;;27.70;41.10;;;;;;5055712;28;1969;-36
2022/07/01 11:25:18;;;;;;;;;;;27.60;41.10;;;;;;5054652;28;881;-35
2022/07/01 11:27:46;;;;;;;;;;;27.60;41.20;;;;;;5055046;28;989;-35
2022/07/01 11:30:14;;;;;;;;;;;27.60;41.20;;;;;;5052250;28;1126;-35
2022/07/01 11:32:43;;;;;;;;;;;27.60;41.40;;;;;;5055092;28;1005;-36
2022/07/01 11:40:49;;;;;;;;;;;27.40;41.70;;;;;;5053120;28;1047;-35
2022/07/01 11:43:20;;;;;;;;;;;27.60;41.50;;;;;;5055530;28;1902;-35
2022/07/01 11:45:46;;;;;;;;;;;27.50;41.40;;;;;;5054559;28;961;-35
2022/07/01 11:48:28;;;;;;;;;;;27.50;41.60;;;;;;5053355;28;1012;-36
2022/07/01 11:50:55;;;;;;;;;;;27.50;41.50;;;;;;5056476;28;1045;-36
2022/07/01 11:53:21;;;;;;;;;;;27.50;41.50;;;;;;5057732;28;942;-35
2022/07/01 11:55:48;;;;;;;;;;;27.50;41.50;;;;;;5057477;28;1021;-37
2022/07/01 11:58:15;;;;;;;;;;;27.50;41.50;;;;;;5058666;28;1041;-35
2022/07/01 12:00:42;;;;;;;;;;;27.50;41.50;;;;;;5059371;28;1012;-32
2022/07/01 12:03:09;;;;;;;;;;;27.50;41.50;;;;;;5058695;28;1894;-32
2022/07/01 12:05:37;;;;;;;;;;;27.50;41.60;;;;;;5048511;28;1429;-31
2022/07/01 12:08:05;;;;;;;;;;;27.60;41.40;;;;;;5037783;28;976;-31
2022/07/01 12:10:32;;;;;;;;;;;27.60;41.40;;;;;;5037882;28;965;-31
2022/07/01 12:12:59;;;;;;;;;;;27.60;41.90;;;;;;5037207;28;962;-31
2022/07/01 12:15:25;;;;;;;;;;;27.60;41.70;;;;;;5038542;28;972;-31
2022/07/01 12:18:05;;;;;;;;;;;27.60;41.50;;;;;;5037220;28;1017;-31
2022/07/01 12:20:32;;;;;;;;;;;27.70;41.30;;;;;;5037436;28;1009;-31
2022/07/01 12:23:12;;;;;;;;;;;27.70;41.20;;;;;;5038455;28;1902;-31
2022/07/01 12:25:39;;;;;;;;;;;27.70;41.30;;;;;;5037435;28;954;-31
2022/07/01 12:28:06;;;;;;;;;;;27.70;41.20;;;;;;5037534;28;1009;-31
2022/07/01 12:30:33;;;;;;;;;;;27.70;41.30;;;;;;5037088;28;1241;-32
2022/07/01 12:33:09;;;;;;;;;;;27.70;41.20;;;;;;5038078;28;1504;-31
2022/07/01 12:35:42;;;;;;;;;;;27.80;41.10;;;;;;5037670;28;972;-31
2022/07/01 12:38:17;;;;;;;;;;;27.70;41.30;;;;;;5036967;28;1028;-31
2022/07/01 12:40:43;;;;;;;;;;;27.80;41.30;;;;;;5038409;28;1096;-31
2022/07/01 12:43:23;;;;;;;;;;;27.90;41.00;;;;;;5058172;28;1905;-31
2022/07/01 12:45:49;;;;;;;;;;;27.80;41.00;;;;;;5059413;28;930;-31
2022/07/01 12:48:16;;;;;;;;;;;27.80;41.00;;;;;;5056902;28;996;-31
2022/07/01 12:50:45;;;;;;;;;;;27.80;41.00;;;;;;5043137;28;1633;-31
2022/07/01 12:53:13;;;;;;;;;;;27.90;41.00;;;;;;5037770;28;981;-31
2022/07/01 12:55:41;;;;;;;;;;;27.90;41.10;;;;;;5038164;28;1208;-31
2022/07/01 12:58:10;;;;;;;;;;;27.80;41.20;;;;;;5037641;28;981;-31
2022/07/01 13:00:38;;;;;;;;;;;27.80;41.30;;;;;;5036838;28;997;-31
2022/07/01 13:03:06;;;;;;;;;;;27.80;41.20;;;;;;5036124;28;2011;-31
2022/07/01 13:05:33;;;;;;;;;;;27.80;41.10;;;;;;5036837;28;1016;-31
2022/07/01 13:08:00;;;;;;;;;;;27.90;41.10;;;;;;5036915;28;1063;-31
2022/07/01 13:10:27;;;;;;;;;;;27.90;41.10;;;;;;5036389;28;949;-31
2022/07/01 13:12:55;;;;;;;;;;;27.90;41.10;;;;;;5036367;28;1000;-31
2022/07/01 13:15:22;;;;;;;;;;;27.90;41.20;;;;;;5036720;28;1009;-31
2022/07/01 13:17:49;;;;;;;;;;;28.00;41.10;;;;;;5037606;28;1109;-31
2022/07/01 13:20:16;;;;;;;;;;;28.00;41.10;;;;;;5036163;28;977;-31
2022/07/01 13:22:43;;;;;;;;;;;28.00;41.20;;;;;;5037212;28;988;-31
2022/07/01 13:25:11;;;;;;;;;;;28.00;41.10;;;;;;5036692;28;1992;-31
2022/07/01 13:27:38;;;;;;;;;;;28.00;41.10;;;;;;5035716;28;1026;-31
2022/07/01 13:30:08;;;;;;;;;;;28.00;41.10;;;;;;5035577;28;1104;-31
2022/07/01 13:32:34;;;;;;;;;;;28.00;41.00;;;;;;5037099;28;961;-31
2022/07/01 13:35:02;;;;;;;;;;;28.00;41.20;;;;;;5035292;28;981;-31
2022/07/01 13:37:29;;;;;;;;;;;28.00;41.20;;;;;;5035971;28;1011;-31
2022/07/01 13:39:56;;;;;;;;;;;28.00;41.30;;;;;;5035156;28;953;-31
2022/07/01 13:42:23;;;;;;;;;;;28.00;41.10;;;;;;5037367;28;988;-31
2022/07/01 13:44:50;;;;;;;;;;;28.10;41.10;;;;;;5037088;28;1906;-31
2022/07/01 13:47:18;;;;;;;;;;;28.00;41.20;;;;;;5036622;28;977;-31
2022/07/01 13:49:45;;;;;;;;;;;28.00;41.30;;;;;;5037430;28;1205;-31
2022/07/01 13:52:12;;;;;;;;;;;28.00;41.30;;;;;;5037580;28;897;-31
2022/07/01 13:54:38;;;;;;;;;;;28.10;41.20;;;;;;5035261;28;993;-31
2022/07/01 13:57:06;;;;;;;;;;;28.10;41.10;;;;;;5036773;28;992;-31
2022/07/01 13:59:32;;;;;;;;;;;28.10;41.10;;;;;;5035564;28;981;-31
2022/07/01 14:01:59;;;;;;;;;;;28.10;41.00;;;;;;5036745;28;1009;-31
2022/07/01 14:04:27;;;;;;;;;;;28.10;41.10;;;;;;5036791;28;1906;-31
2022/07/01 14:06:54;;;;;;;;;;;28.10;41.20;;;;;;5036132;28;1001;-31
2022/07/01 14:09:21;;;;;;;;;;;28.00;41.40;;;;;;5036452;28;976;-32
2022/07/01 14:11:48;;;;;;;;;;;28.00;41.40;;;;;;5035810;28;997;-31
2022/07/01 14:14:15;;;;;;;;;;;28.00;41.50;;;;;;5034351;28;942;-31
2022/07/01 14:16:42;;;;;;;;;;;28.00;41.60;;;;;;5035416;28;983;-32
2022/07/01 14:19:09;;;;;;;;;;;28.00;41.50;;;;;;5036749;28;1004;-31
2022/07/01 14:21:37;;;;;;;;;;;28.00;41.50;;;;;;5036176;28;981;-31
2022/07/01 14:24:04;;;;;;;;;;;28.00;41.40;;;;;;5035816;28;1906;-32
2022/07/01 14:26:31;;;;;;;;;;;28.10;41.50;;;;;;5035986;28;1016;-31
2022/07/01 14:28:57;;;;;;;;;;;28.10;41.40;;;;;;5035962;28;1041;-31
2022/07/01 14:31:24;;;;;;;;;;;28.10;41.20;;;;;;5036768;28;977;-32
2022/07/01 14:33:52;;;;;;;;;;;28.20;41.30;;;;;;5035452;28;1064;-31
2022/07/01 14:36:19;;;;;;;;;;;28.20;41.30;;;;;;5034265;28;1025;-34
2022/07/01 14:38:47;;;;;;;;;;;28.20;41.30;;;;;;5035750;28;989;-34
2022/07/01 14:41:14;;;;;;;;;;;28.30;41.00;;;;;;5036426;28;933;-34
2022/07/01 14:43:40;;;;;;;;;;;28.30;41.00;;;;;;5036002;28;2162;-34
2022/07/01 14:46:08;;;;;;;;;;;28.30;41.00;;;;;;5034840;28;1076;-34
2022/07/01 14:48:38;;;;;;;;;;;28.40;41.00;;;;;;5036091;28;2464;-35
2022/07/01 14:51:05;;;;;;;;;;;28.50;40.70;;;;;;5035799;28;922;-35
2022/07/01 14:53:31;;;;;;;;;;;28.60;40.70;;;;;;5034765;28;996;-34
2022/07/01 14:56:00;;;;;;;;;;;28.60;40.60;;;;;;5034909;28;993;-35